Time;durP1;ratioP1;P1;durP2;ratioP2;P2;SDS_P1;SDS_P2;PMS_P1;PMS_P2;Temp;Humidity;BMP_temperature;BMP_pressure;BME280_temperature;BME280_humidity;BME280_pressure;Samples;Min_cycle;Max_cycle;Signal;HPM_P1;HPM_P2
2021/08/08 00:01:18;;;;;;;1.00;0.85;;;;;;;13.60;100.00;95106.06;5040987;28;20044;-79
2021/08/08 00:03:43;;;;;;;2.70;1.10;;;;;;;13.52;100.00;95098.84;5032421;28;20037;-79
2021/08/08 00:06:09;;;;;;;2.00;1.20;;;;;;;13.65;100.00;95092.72;5033604;28;20433;-79
2021/08/08 00:08:34;;;;;;;2.30;1.00;;;;;;;13.60;100.00;95095.47;5028614;28;20049;-79
2021/08/08 00:11:00;;;;;;;5.13;1.08;;;;;;;13.61;100.00;95081.19;5030248;28;20042;-79
2021/08/08 00:13:26;;;;;;;5.03;1.02;;;;;;;13.60;100.00;95082.25;5033813;28;20549;-79
2021/08/08 00:15:52;;;;;;;2.13;1.35;;;;;;;13.72;99.78;95091.53;5032535;28;20040;-79
2021/08/08 00:18:18;;;;;;;1.30;0.93;;;;;;;13.66;99.18;95089.00;5047471;28;20041;-79
2021/08/08 00:20:44;;;;;;;2.90;0.95;;;;;;;13.60;99.83;95095.47;5034810;28;20041;-79
2021/08/08 00:23:10;;;;;;;2.95;1.33;;;;;;;13.56;100.00;95104.31;5037514;28;20396;-79
2021/08/08 00:25:35;;;;;;;2.65;1.05;;;;;;;13.47;100.00;95101.59;5033992;28;20046;-79
2021/08/08 00:28:01;;;;;;;1.58;1.10;;;;;;;13.46;100.00;95100.03;5047151;28;20434;-79
2021/08/08 00:30:27;;;;;;;1.60;0.90;;;;;;;13.42;100.00;95097.19;5045492;28;20467;-79
2021/08/08 00:32:53;;;;;;;3.10;1.02;;;;;;;13.40;100.00;95102.00;5046184;28;20095;-79
2021/08/08 00:35:19;;;;;;;2.92;1.40;;;;;;;13.44;100.00;95091.63;5060821;28;20045;-79
2021/08/08 00:37:47;;;;;;;2.08;1.40;;;;;;;13.31;100.00;95083.38;5049877;28;20045;-79
2021/08/08 00:40:15;;;;;;;5.50;1.27;;;;;;;13.39;100.00;95070.56;5043370;28;20087;-79
2021/08/08 00:42:46;;;;;;;3.22;1.30;;;;;;;13.46;100.00;95073.59;5032926;28;20042;-79
2021/08/08 00:45:15;;;;;;;1.95;1.25;;;;;;;13.30;100.00;95081.84;5033364;28;20052;-79
2021/08/08 00:47:40;;;;;;;4.43;1.35;;;;;;;13.33;100.00;95086.53;5033229;28;20095;-79
2021/08/08 00:50:06;;;;;;;2.15;1.10;;;;;;;13.39;100.00;95089.06;5047290;28;20652;-79
2021/08/08 00:52:33;;;;;;;2.72;1.00;;;;;;;13.38;100.00;95082.25;5049872;28;20173;-79
2021/08/08 00:54:59;;;;;;;3.97;0.82;;;;;;;13.33;100.00;95073.31;5059302;28;20072;-78
2021/08/08 00:57:25;;;;;;;3.33;0.90;;;;;;;13.34;100.00;95071.44;5037414;28;20434;-78
2021/08/08 00:59:50;;;;;;;3.05;1.10;;;;;;;13.26;100.00;95074.78;5046763;28;20040;-79
2021/08/08 01:02:19;;;;;;;3.58;1.27;;;;;;;13.28;100.00;95083.97;5041271;28;20042;-79
2021/08/08 01:05:09;;;;;;;2.47;0.80;;;;;;;13.29;100.00;95090.06;5049074;28;20502;-78
2021/08/08 01:08:10;;;;;;;3.17;1.20;;;;;;;13.29;100.00;95100.63;5051177;28;20041;-79
2021/08/08 01:10:36;;;;;;;3.67;1.00;;;;;;;13.36;100.00;95116.09;5032223;28;20053;-79
2021/08/08 01:13:02;;;;;;;3.05;1.10;;;;;;;13.40;100.00;95120.47;5044977;28;20045;-79
2021/08/08 01:15:29;;;;;;;1.58;1.20;;;;;;;13.36;100.00;95113.44;5050189;28;20044;-79
2021/08/08 01:17:57;;;;;;;2.05;1.02;;;;;;;13.37;100.00;95128.25;5044714;28;20045;-79
2021/08/08 01:20:24;;;;;;;1.23;0.80;;;;;;;13.36;100.00;95116.09;5038189;28;20044;-79
2021/08/08 01:22:55;;;;;;;0.98;0.88;;;;;;;13.41;100.00;95108.84;5035132;28;20407;-80
2021/08/08 01:25:22;;;;;;;2.55;0.98;;;;;;;13.39;100.00;95115.50;5032983;28;20041;-79
2021/08/08 01:27:51;;;;;;;5.55;1.90;;;;;;;13.47;100.00;95117.44;5035450;28;20490;-80
2021/08/08 01:30:17;;;;;;;2.25;1.00;;;;;;;13.47;99.94;95112.94;5033948;28;20121;-80
2021/08/08 01:32:43;;;;;;;2.22;1.08;;;;;;;13.45;100.00;95119.63;5048195;28;20119;-80
2021/08/08 01:35:09;;;;;;;5.13;1.23;;;;;;;13.39;100.00;95115.50;5052124;28;20048;-80
2021/08/08 01:37:35;;;;;;;1.73;0.85;;;;;;;13.40;100.00;95117.06;5047006;28;20525;-80
2021/08/08 01:40:09;;;;;;;1.48;1.00;;;;;;;13.34;100.00;95119.81;5032856;28;20042;-80
2021/08/08 01:42:40;;;;;;;2.38;1.20;;;;;;;13.29;100.00;95111.97;5030339;28;20056;-80
2021/08/08 01:45:09;;;;;;;3.60;0.90;;;;;;;13.26;100.00;95111.78;5034689;28;20075;-80
2021/08/08 01:47:38;;;;;;;3.05;0.98;;;;;;;13.24;100.00;95104.13;5031549;28;20061;-80
2021/08/08 01:50:04;;;;;;;1.15;0.80;;;;;;;13.23;100.00;95086.75;5042664;28;20041;-80
2021/08/08 01:52:30;;;;;;;1.48;1.10;;;;;;;13.24;100.00;95093.56;5047389;28;20042;-80
2021/08/08 01:54:56;;;;;;;1.45;1.08;;;;;;;13.25;100.00;95095.13;5062515;28;20495;-80
2021/08/08 01:57:22;;;;;;;1.50;0.93;;;;;;;13.25;100.00;95100.44;5053502;28;20048;-83
2021/08/08 01:59:48;;;;;;;1.55;1.10;;;;;;;13.26;100.00;95112.56;5046522;28;20043;-80
2021/08/08 02:02:16;;;;;;;3.65;1.30;;;;;;;13.20;100.00;95107.66;5044734;28;20042;-82
2021/08/08 02:04:43;;;;;;;2.92;1.10;;;;;;;13.25;100.00;95126.06;5047250;28;20037;-80
2021/08/08 02:07:16;;;;;;;2.00;1.20;;;;;;;13.26;100.00;95132.91;5049039;28;20048;-79
2021/08/08 02:09:42;;;;;;;1.48;1.30;;;;;;;13.22;100.00;95132.72;5035233;28;20049;-80
2021/08/08 02:12:09;;;;;;;2.35;1.25;;;;;;;13.16;100.00;95133.91;5037171;28;20049;-81
2021/08/08 02:14:35;;;;;;;2.80;1.30;;;;;;;13.18;100.00;95137.81;5044112;28;20049;-80
2021/08/08 02:17:01;;;;;;;1.42;1.17;;;;;;;13.14;100.00;95141.34;5038868;28;20574;-80
2021/08/08 02:19:27;;;;;;;1.58;1.10;;;;;;;13.13;100.00;95150.34;5041783;28;20124;-81
2021/08/08 02:21:53;;;;;;;3.13;1.25;;;;;;;13.16;100.00;95160.34;5037424;28;20041;-78
2021/08/08 02:24:19;;;;;;;2.75;1.30;;;;;;;13.13;100.00;95158.25;5030826;28;20045;-79
2021/08/08 02:26:45;;;;;;;2.05;1.23;;;;;;;13.16;100.00;95147.13;5032939;28;20152;-80
2021/08/08 02:29:10;;;;;;;4.40;1.10;;;;;;;13.08;100.00;95147.81;5033006;28;20800;-79
2021/08/08 02:31:41;;;;;;;1.52;1.05;;;;;;;13.06;100.00;95160.50;5034762;28;20095;-79
2021/08/08 02:34:08;;;;;;;0.93;0.93;;;;;;;13.14;100.00;95159.81;5048911;28;20037;-79
2021/08/08 02:36:34;;;;;;;1.95;1.13;;;;;;;13.12;100.00;95164.63;5060579;28;20085;-79
2021/08/08 02:39:00;;;;;;;1.17;0.73;;;;;;;13.08;100.00;95155.72;5054266;28;20040;-80
2021/08/08 02:41:25;;;;;;;2.33;0.98;;;;;;;13.11;100.00;95157.78;5029360;28;20487;-79
2021/08/08 02:43:54;;;;;;;1.90;0.95;;;;;;;13.09;100.00;95152.78;5041469;28;20053;-78
2021/08/08 02:46:20;;;;;;;2.53;1.20;;;;;;;13.12;100.00;95159.34;5047740;28;20045;-78
2021/08/08 02:48:45;;;;;;;2.83;1.00;;;;;;;13.09;100.00;95160.72;5030856;28;20041;-79
2021/08/08 02:51:11;;;;;;;2.08;1.00;;;;;;;13.09;100.00;95165.22;5045665;28;20078;-79
2021/08/08 02:53:37;;;;;;;4.57;1.25;;;;;;;13.07;100.00;95164.72;5037095;28;20156;-79
2021/08/08 02:56:03;;;;;;;4.90;1.00;;;;;;;13.07;100.00;95162.84;5033510;28;20091;-78
2021/08/08 02:58:28;;;;;;;1.85;1.00;;;;;;;13.12;100.00;95165.41;5032943;28;20046;-79
2021/08/08 03:00:54;;;;;;;2.17;1.13;;;;;;;13.12;100.00;95164.63;5039501;28;20499;-79
2021/08/08 03:03:19;;;;;;;2.95;1.20;;;;;;;13.03;100.00;95161.09;5029722;28;20042;-79
2021/08/08 03:05:45;;;;;;;4.35;1.20;;;;;;;13.02;100.00;95159.56;5033991;28;20511;-79
2021/08/08 03:08:10;;;;;;;2.58;1.10;;;;;;;13.07;100.00;95170.00;5040746;28;20060;-80
2021/08/08 03:10:36;;;;;;;2.30;1.20;;;;;;;13.06;100.00;95176.34;5047624;28;20403;-79
2021/08/08 03:13:02;;;;;;;3.83;1.30;;;;;;;13.10;100.00;95182.63;5040769;28;20167;-79
2021/08/08 03:15:28;;;;;;;1.33;1.10;;;;;;;13.05;100.00;95185.38;5039889;28;20040;-79
2021/08/08 03:17:53;;;;;;;2.10;1.10;;;;;;;13.05;100.00;95182.72;5030230;28;20048;-79
2021/08/08 03:20:22;;;;;;;1.58;0.88;;;;;;;13.04;100.00;95200.44;5031196;28;20045;-79
2021/08/08 03:22:48;;;;;;;2.42;1.10;;;;;;;13.07;100.00;95199.84;5040527;28;20179;-79
2021/08/08 03:25:14;;;;;;;3.20;1.10;;;;;;;13.05;100.00;95202.00;5041591;28;20748;-81
2021/08/08 03:27:39;;;;;;;1.52;1.08;;;;;;;12.99;100.00;95203.94;5037894;28;20041;-81
2021/08/08 03:30:09;;;;;;;1.15;0.90;;;;;;;13.04;100.00;95204.94;5032004;28;20316;-80
2021/08/08 03:32:35;;;;;;;2.45;1.20;;;;;;;13.05;100.00;95195.94;5041318;28;20040;-80
2021/08/08 03:35:00;;;;;;;1.25;1.15;;;;;;;13.05;100.00;95201.22;5044822;28;20510;-79
2021/08/08 03:37:26;;;;;;;3.05;1.20;;;;;;;13.05;100.00;95215.22;5049354;28;20048;-79
2021/08/08 03:39:52;;;;;;;2.50;1.10;;;;;;;13.00;100.00;95220.56;5047655;28;20041;-80
2021/08/08 03:42:18;;;;;;;3.70;1.67;;;;;;;13.06;100.00;95227.34;5034893;28;20046;-79
2021/08/08 03:44:43;;;;;;;2.08;1.13;;;;;;;13.07;100.00;95230.75;5037726;28;20155;-79
2021/08/08 03:47:09;;;;;;;1.70;1.10;;;;;;;13.02;100.00;95228.22;5047362;28;20104;-79
2021/08/08 03:49:35;;;;;;;5.15;1.27;;;;;;;13.02;100.00;95238.78;5037292;28;20907;-79
2021/08/08 03:52:00;;;;;;;1.08;0.90;;;;;;;13.05;100.00;95238.22;5034269;28;20049;-81
2021/08/08 03:54:26;;;;;;;3.22;1.00;;;;;;;13.10;100.00;95246.81;5035853;28;20041;-79
2021/08/08 03:56:52;;;;;;;3.38;1.10;;;;;;;13.05;100.00;95249.53;5050418;28;20051;-79
2021/08/08 03:59:18;;;;;;;3.17;1.10;;;;;;;13.03;100.00;95248.25;5049625;28;20045;-80
2021/08/08 04:01:44;;;;;;;4.38;1.38;;;;;;;13.07;100.00;95244.75;5034817;28;20045;-79
2021/08/08 04:04:10;;;;;;;2.85;1.33;;;;;;;13.08;100.00;95248.19;5035635;28;20532;-79
2021/08/08 04:06:35;;;;;;;1.17;1.08;;;;;;;13.06;100.00;95252.97;5047787;28;20051;-80
2021/08/08 04:09:01;;;;;;;3.50;1.45;;;;;;;13.07;100.00;95259.81;5062237;28;20056;-80
2021/08/08 04:11:27;;;;;;;4.72;1.27;;;;;;;13.08;100.00;95259.53;5031166;28;20038;-80
2021/08/08 04:13:52;;;;;;;3.50;1.10;;;;;;;13.13;100.00;95261.28;5029935;28;20126;-80
2021/08/08 04:16:18;;;;;;;2.00;1.15;;;;;;;13.10;100.00;95277.72;5047439;28;20047;-79
2021/08/08 04:18:43;;;;;;;2.08;1.20;;;;;;;13.05;100.00;95288.41;5046833;28;20042;-79
2021/08/08 04:21:09;;;;;;;1.33;1.15;;;;;;;13.01;100.00;95280.25;5029359;28;20041;-80
2021/08/08 04:23:35;;;;;;;1.60;1.10;;;;;;;13.04;100.00;95270.97;5045410;28;20542;-80
2021/08/08 04:26:00;;;;;;;3.92;1.30;;;;;;;13.00;100.00;95273.41;5045480;28;20045;-79
2021/08/08 04:28:26;;;;;;;3.88;1.42;;;;;;;13.06;100.00;95277.53;5041642;28;20063;-80
2021/08/08 04:30:51;;;;;;;5.82;1.40;;;;;;;13.14;100.00;95284.00;5040706;28;20414;-80
2021/08/08 04:33:17;;;;;;;2.15;1.30;;;;;;;13.15;100.00;95275.00;5036584;28;20037;-80
2021/08/08 04:35:42;;;;;;;4.03;1.30;;;;;;;13.12;100.00;95286.16;5046464;28;20045;-80
2021/08/08 04:38:08;;;;;;;3.20;1.40;;;;;;;12.99;100.00;95288.47;5032201;28;20116;-79
2021/08/08 04:40:33;;;;;;;5.35;1.40;;;;;;;12.92;100.00;95282.78;5039206;28;20037;-80
2021/08/08 04:42:59;;;;;;;3.13;1.40;;;;;;;12.90;100.00;95295.50;5030461;28;20045;-80
2021/08/08 04:45:25;;;;;;;2.90;1.50;;;;;;;12.93;100.00;95300.19;5035607;28;20555;-79
2021/08/08 04:47:52;;;;;;;2.13;1.42;;;;;;;13.21;100.00;95300.25;5045836;28;20106;-80
2021/08/08 04:50:18;;;;;;;1.48;1.30;;;;;;;13.17;100.00;95299.28;5044581;28;20057;-81
2021/08/08 04:52:48;;;;;;;1.83;1.23;;;;;;;13.24;100.00;95304.97;5033542;28;20068;-79
2021/08/08 04:55:15;;;;;;;1.73;1.20;;;;;;;13.28;100.00;95303.31;5051249;28;20457;-79
2021/08/08 04:57:40;;;;;;;2.75;1.13;;;;;;;13.22;100.00;95291.25;5042216;28;20040;-80
2021/08/08 05:00:07;;;;;;;6.20;1.90;;;;;;;13.16;100.00;95292.44;5044951;28;20280;-79
2021/08/08 05:02:33;;;;;;;1.80;1.15;;;;;;;13.07;100.00;95296.81;5035430;28;20037;-81
2021/08/08 05:04:59;;;;;;;3.75;1.23;;;;;;;13.06;100.00;95303.16;5056446;28;20045;-80
2021/08/08 05:07:25;;;;;;;2.65;1.27;;;;;;;13.19;100.00;95302.41;5043632;28;21033;-81
2021/08/08 05:09:50;;;;;;;3.10;1.25;;;;;;;13.17;100.00;95286.06;5051740;28;20186;-81
2021/08/08 05:12:16;;;;;;;2.95;1.40;;;;;;;13.26;100.00;95292.25;5053593;28;20048;-81
2021/08/08 05:14:41;;;;;;;3.95;1.25;;;;;;;13.31;100.00;95292.16;5042413;28;20066;-80
2021/08/08 05:17:07;;;;;;;1.60;1.40;;;;;;;13.38;100.00;95298.97;5050322;28;20040;-81
2021/08/08 05:19:33;;;;;;;1.00;0.95;;;;;;;13.46;100.00;95295.63;5044451;28;20045;-81
2021/08/08 05:21:59;;;;;;;1.33;1.00;;;;;;;13.51;100.00;95303.47;5041751;28;20041;-81
2021/08/08 05:24:25;;;;;;;1.73;1.20;;;;;;;13.59;100.00;95310.72;5034880;28;20088;-80
2021/08/08 05:26:50;;;;;;;2.22;1.40;;;;;;;13.69;100.00;95310.53;5038851;28;20496;-81
2021/08/08 05:29:16;;;;;;;3.95;1.30;;;;;;;13.61;100.00;95313.84;5036586;28;20046;-82
2021/08/08 05:31:42;;;;;;;2.13;1.20;;;;;;;13.74;100.00;95308.88;5032458;28;20663;-80
2021/08/08 05:34:07;;;;;;;2.20;1.20;;;;;;;13.62;100.00;95307.50;5040692;28;20064;-81
2021/08/08 05:36:33;;;;;;;2.58;1.13;;;;;;;13.66;100.00;95316.41;5053553;28;20060;-81
2021/08/08 05:39:00;;;;;;;2.17;1.30;;;;;;;13.64;100.00;95313.25;5044681;28;20487;-81
2021/08/08 05:41:26;;;;;;;1.83;1.20;;;;;;;13.65;100.00;95320.13;5046123;28;20039;-79
2021/08/08 05:43:52;;;;;;;2.08;1.27;;;;;;;13.76;100.00;95304.06;5040392;28;20047;-79
2021/08/08 05:46:18;;;;;;;2.38;1.30;;;;;;;13.72;100.00;95308.38;5036386;28;20033;-79
2021/08/08 05:48:43;;;;;;;5.95;1.70;;;;;;;13.72;100.00;95308.38;5033085;28;20053;-80
2021/08/08 05:51:09;;;;;;;2.28;1.23;;;;;;;13.88;100.00;95307.00;5040892;28;20640;-80
2021/08/08 05:53:35;;;;;;;1.75;1.13;;;;;;;13.83;100.00;95307.09;5036528;28;20037;-80
2021/08/08 05:56:00;;;;;;;1.60;1.20;;;;;;;13.97;100.00;95315.81;5038637;28;20045;-81
2021/08/08 05:58:26;;;;;;;2.72;1.40;;;;;;;13.99;100.00;95318.97;5045781;28;20037;-80
2021/08/08 06:00:51;;;;;;;3.55;1.40;;;;;;;13.97;100.00;95320.31;5043868;28;20033;-81
2021/08/08 06:03:18;;;;;;;2.63;1.38;;;;;;;14.01;100.00;95322.06;5039433;28;20044;-82
2021/08/08 06:05:44;;;;;;;2.25;1.65;;;;;;;14.07;100.00;95319.34;5031525;28;20048;-81
2021/08/08 06:08:10;;;;;;;2.10;1.40;;;;;;;14.10;100.00;95324.03;5044299;28;20437;-82
2021/08/08 06:10:37;;;;;;;4.93;1.10;;;;;;;14.14;100.00;95330.31;5029816;28;20048;-81
2021/08/08 06:13:03;;;;;;;3.60;1.42;;;;;;;14.15;100.00;95321.28;5048027;28;20053;-82
2021/08/08 06:15:29;;;;;;;2.30;1.30;;;;;;;14.19;100.00;95322.25;5039569;28;20108;-81
2021/08/08 06:17:54;;;;;;;5.03;1.50;;;;;;;14.17;100.00;95324.41;5042008;28;20037;-81
2021/08/08 06:20:20;;;;;;;3.15;1.38;;;;;;;14.27;100.00;95334.03;5041436;28;20045;-81
2021/08/08 06:22:46;;;;;;;2.20;1.25;;;;;;;14.25;100.00;95326.38;5037203;28;20042;-84
2021/08/08 06:25:11;;;;;;;1.98;1.40;;;;;;;14.30;100.00;95328.91;5053113;28;20041;-82
2021/08/08 06:27:37;;;;;;;1.63;1.27;;;;;;;14.30;100.00;95334.19;5046615;28;20033;-82
2021/08/08 06:30:04;;;;;;;2.63;1.38;;;;;;;14.34;100.00;95326.47;5035905;28;20059;-88
2021/08/08 06:32:29;;;;;;;2.50;1.20;;;;;;;14.39;100.00;95331.63;5041512;28;20047;-77
2021/08/08 06:34:55;;;;;;;1.30;1.20;;;;;;;14.36;100.00;95333.00;5032441;28;20446;-77
2021/08/08 06:37:20;;;;;;;1.48;1.27;;;;;;;14.29;100.00;95327.31;5036983;28;20052;-79
2021/08/08 06:39:46;;;;;;;1.20;1.10;;;;;;;14.37;100.00;95334.56;5032383;28;20041;-80
2021/08/08 06:42:12;;;;;;;2.25;1.48;;;;;;;14.37;100.00;95339.09;5032009;28;20049;-79
2021/08/08 06:44:37;;;;;;;3.22;1.30;;;;;;;14.36;100.00;95338.28;5044310;28;20038;-79
2021/08/08 06:47:03;;;;;;;2.88;1.50;;;;;;;14.36;100.00;95342.81;5032106;28;20049;-79
2021/08/08 06:49:29;;;;;;;2.13;1.40;;;;;;;14.37;100.00;95342.50;5037361;28;20074;-80
2021/08/08 06:51:55;;;;;;;1.80;1.30;;;;;;;14.31;100.00;95341.06;5034957;28;20033;-78
2021/08/08 06:54:20;;;;;;;1.88;1.30;;;;;;;14.48;100.00;95344.94;5030867;28;20071;-78
2021/08/08 06:56:46;;;;;;;1.63;1.20;;;;;;;14.51;100.00;95339.03;5031887;28;20041;-79
2021/08/08 06:59:11;;;;;;;1.73;1.27;;;;;;;14.51;99.86;95339.03;5032343;28;20046;-77
2021/08/08 07:01:37;;;;;;;3.10;1.25;;;;;;;14.53;99.88;95342.19;5033930;28;20595;-78
2021/08/08 07:04:04;;;;;;;1.55;1.13;;;;;;;14.49;100.00;95343.88;5033733;28;20052;-78
2021/08/08 07:06:30;;;;;;;3.30;1.40;;;;;;;14.53;100.00;95345.63;5044067;28;20098;-78
2021/08/08 07:08:55;;;;;;;1.55;1.27;;;;;;;14.55;99.87;95345.31;5035642;28;20537;-79
2021/08/08 07:11:21;;;;;;;1.70;1.25;;;;;;;14.59;99.73;95351.59;5037314;28;20048;-77
2021/08/08 07:13:47;;;;;;;3.92;1.58;;;;;;;14.51;100.00;95349.63;5045648;28;20044;-77
2021/08/08 07:16:12;;;;;;;2.33;1.60;;;;;;;14.48;100.00;95345.75;5034221;28;20048;-78
2021/08/08 07:18:38;;;;;;;4.75;1.50;;;;;;;14.46;99.28;95339.16;5038933;28;20110;-79
2021/08/08 07:21:03;;;;;;;2.70;1.25;;;;;;;14.58;98.53;95355.31;5042969;28;20045;-77
2021/08/08 07:23:29;;;;;;;3.42;1.33;;;;;;;14.60;99.54;95353.16;5046105;28;20399;-78
2021/08/08 07:25:55;;;;;;;1.63;1.10;;;;;;;14.73;99.56;95352.34;5040562;28;20037;-77
2021/08/08 07:28:20;;;;;;;3.97;1.85;;;;;;;14.80;97.29;95359.13;5039614;28;20045;-77
2021/08/08 07:30:46;;;;;;;2.08;1.40;;;;;;;14.81;96.69;95358.03;5046960;28;20043;-78
2021/08/08 07:33:11;;;;;;;2.00;1.23;;;;;;;14.84;96.37;95357.41;5039974;28;20042;-77
2021/08/08 07:35:40;;;;;;;4.13;1.23;;;;;;;14.93;96.94;95355.63;5044902;28;20032;-79
2021/08/08 07:38:06;;;;;;;2.17;1.20;;;;;;;14.98;97.17;95363.44;5044599;28;20461;-79
2021/08/08 07:40:32;;;;;;;2.53;1.30;;;;;;;14.92;96.63;95354.06;5049553;28;20045;-78
2021/08/08 07:42:57;;;;;;;2.67;1.33;;;;;;;14.98;95.97;95352.84;5036107;28;20037;-78
2021/08/08 07:45:23;;;;;;;3.67;1.20;;;;;;;14.86;98.58;95349.97;5044142;28;20068;-80
2021/08/08 07:47:48;;;;;;;4.55;1.50;;;;;;;15.04;96.67;95362.25;5050574;28;20048;-79
2021/08/08 07:50:14;;;;;;;1.45;1.13;;;;;;;15.03;98.23;95360.69;5044050;28;20065;-78
2021/08/08 07:52:40;;;;;;;2.55;1.40;;;;;;;15.15;96.30;95359.38;5038373;28;20465;-80
2021/08/08 07:55:07;;;;;;;3.28;1.20;;;;;;;15.26;93.83;95360.69;5047114;28;20499;-78
2021/08/08 07:57:33;;;;;;;2.35;1.40;;;;;;;15.31;97.16;95360.56;5032435;28;20050;-79
2021/08/08 07:59:59;;;;;;;3.50;1.30;;;;;;;15.40;94.81;95363.25;5034482;28;20049;-77
2021/08/08 08:02:25;;;;;;;4.10;1.50;;;;;;;15.24;96.78;95361.00;5045526;28;20494;-79
2021/08/08 08:04:50;;;;;;;2.85;1.40;;;;;;;15.34;94.59;95359.97;5045273;28;20051;-79
2021/08/08 08:07:16;;;;;;;2.38;1.50;;;;;;;15.47;96.83;95352.22;5034799;28;20045;-78
2021/08/08 08:09:41;;;;;;;2.28;1.40;;;;;;;15.67;95.63;95350.91;5038334;28;20603;-80
2021/08/08 08:12:07;;;;;;;2.95;1.40;;;;;;;15.82;93.25;95347.91;5034108;28;20052;-78
2021/08/08 08:14:32;;;;;;;2.38;1.35;;;;;;;15.96;90.71;95347.81;5033177;28;20095;-78
2021/08/08 08:16:58;;;;;;;3.08;1.45;;;;;;;15.99;95.82;95347.19;5033157;28;20060;-79
2021/08/08 08:19:24;;;;;;;3.92;1.30;;;;;;;16.13;88.66;95346.28;5049861;28;20036;-77
2021/08/08 08:21:49;;;;;;;4.53;1.40;;;;;;;16.14;91.50;95347.84;5038372;28;20048;-76
2021/08/08 08:24:15;;;;;;;1.77;1.38;;;;;;;16.32;90.79;95349.44;5040095;28;20156;-77
2021/08/08 08:26:41;;;;;;;2.42;1.30;;;;;;;16.31;89.04;95353.19;5007220;28;20053;-80
2021/08/08 08:29:07;;;;;;;3.30;1.48;;;;;;;16.43;88.97;95356.03;5030257;28;20125;-78
2021/08/08 08:31:34;;;;;;;2.15;1.30;;;;;;;16.68;88.37;95360.88;5029410;28;20033;-78
2021/08/08 08:34:00;;;;;;;1.77;1.40;;;;;;;16.66;86.46;95358.53;5038760;28;20131;-77
2021/08/08 08:36:25;;;;;;;6.00;1.45;;;;;;;16.62;81.63;95370.88;5031647;28;20120;-78
2021/08/08 08:38:51;;;;;;;4.28;1.40;;;;;;;16.57;83.92;95365.72;5042566;28;20195;-79
2021/08/08 08:41:17;;;;;;;5.15;1.85;;;;;;;16.57;85.34;95365.72;5042163;28;20487;-77
2021/08/08 08:43:44;;;;;;;2.28;1.33;;;;;;;16.69;84.50;95363.22;5047283;28;20684;-79
2021/08/08 08:46:11;;;;;;;2.25;1.55;;;;;;;16.58;83.76;95357.44;5042183;28;20056;-81
2021/08/08 08:48:39;;;;;;;3.13;1.48;;;;;;;16.76;84.34;95358.22;5040838;28;20449;-79
2021/08/08 08:51:05;;;;;;;3.88;1.52;;;;;;;16.76;84.72;95363.53;5046916;28;20053;-79
2021/08/08 08:53:31;;;;;;;3.30;1.45;;;;;;;16.87;85.39;95368.56;5049697;28;20408;-78
2021/08/08 08:56:01;;;;;;;2.90;1.52;;;;;;;16.88;85.08;95362.16;5047425;28;20158;-77
2021/08/08 08:58:28;;;;;;;5.18;1.60;;;;;;;16.99;82.70;95371.41;5043779;28;20052;-79
2021/08/08 09:00:54;;;;;;;2.00;1.50;;;;;;;17.03;81.13;95369.69;5044685;28;20177;-78
2021/08/08 09:03:20;;;;;;;2.90;1.30;;;;;;;17.09;81.98;95365.00;5033856;28;20477;-78
2021/08/08 09:05:46;;;;;;;3.53;1.58;;;;;;;17.13;78.20;95372.00;5027297;28;20053;-79
2021/08/08 09:08:12;;;;;;;4.75;1.95;;;;;;;17.22;82.83;95363.25;5034156;28;20053;-78
2021/08/08 09:10:39;;;;;;;6.28;1.60;;;;;;;17.16;85.14;95364.53;5034077;28;20034;-81
2021/08/08 09:13:05;;;;;;;4.60;1.50;;;;;;;17.20;79.66;95358.25;5033835;28;20391;-79
2021/08/08 09:15:40;;;;;;;2.75;1.40;;;;;;;17.14;81.51;95362.19;5053381;28;20041;-82
2021/08/08 09:18:21;;;;;;;5.85;1.33;;;;;;;17.38;77.89;95356.31;5040449;28;20045;-81
2021/08/08 09:20:48;;;;;;;3.17;1.33;;;;;;;17.36;79.70;95363.84;5032828;28;20041;-81
2021/08/08 09:23:18;;;;;;;4.25;1.50;;;;;;;17.62;77.66;95365.69;5043085;28;20052;-81
2021/08/08 09:25:52;;;;;;;3.08;1.40;;;;;;;17.58;74.64;95364.75;5039691;28;20426;-81
2021/08/08 09:28:20;;;;;;;4.40;1.30;;;;;;;17.60;76.68;95362.56;5037690;28;20066;-79
2021/08/08 09:30:45;;;;;;;1.98;1.10;;;;;;;17.64;75.40;95363.47;5038912;28;20045;-78
2021/08/08 09:33:12;;;;;;;2.70;1.60;;;;;;;17.70;75.94;95362.22;5042838;28;20532;-79
2021/08/08 09:35:41;;;;;;;3.13;1.40;;;;;;;17.88;74.05;95362.16;5040311;28;20067;-78
2021/08/08 09:38:10;;;;;;;6.78;1.58;;;;;;;18.00;76.83;95363.06;5035069;28;20462;-80
2021/08/08 09:40:39;;;;;;;2.22;1.40;;;;;;;17.99;74.24;95368.72;5031154;28;20037;-80
2021/08/08 09:43:07;;;;;;;4.25;1.40;;;;;;;17.89;74.98;95363.72;5018608;28;20123;-79
2021/08/08 09:45:43;;;;;;;2.88;1.90;;;;;;;17.81;78.40;95371.41;5034385;28;20079;-79
2021/08/08 09:48:11;;;;;;;2.42;1.40;;;;;;;18.12;76.01;95366.94;5034240;28;20188;-82
2021/08/08 09:50:42;;;;;;;1.85;1.30;;;;;;;18.31;74.41;95369.19;5032464;28;20135;-80
2021/08/08 09:53:15;;;;;;;4.30;1.65;;;;;;;18.29;74.29;95369.50;5047941;28;20070;-85
2021/08/08 09:55:41;;;;;;;7.68;1.73;;;;;;;18.34;75.61;95368.53;5025979;28;20032;-80
2021/08/08 09:58:21;;;;;;;6.32;1.70;;;;;;;18.30;78.48;95378.25;5039824;28;20052;-80
2021/08/08 10:00:56;;;;;;;2.35;1.40;;;;;;;18.37;74.72;95378.53;5041288;28;20095;-79
2021/08/08 10:03:21;;;;;;;3.55;1.40;;;;;;;18.34;76.69;95377.28;5045477;28;20048;-79
2021/08/08 10:05:47;;;;;;;2.75;1.60;;;;;;;18.29;75.22;95366.84;5046433;28;20043;-78
2021/08/08 10:08:19;;;;;;;3.05;1.48;;;;;;;18.52;72.59;95374.53;5048613;28;20041;-79
2021/08/08 10:10:47;;;;;;;3.75;1.60;;;;;;;18.66;73.69;95374.28;5047152;28;20061;-79
2021/08/08 10:13:31;;;;;;;2.92;1.85;;;;;;;18.77;73.35;95380.00;5049879;28;20071;-78
2021/08/08 10:15:59;;;;;;;3.28;1.50;;;;;;;18.69;73.05;95389.63;5052215;28;20403;-78
2021/08/08 10:18:38;;;;;;;6.03;1.52;;;;;;;18.78;72.48;95382.34;5055703;28;20052;-78
2021/08/08 10:21:06;;;;;;;2.42;1.30;;;;;;;18.80;73.43;95380.13;5031097;28;20071;-78
2021/08/08 10:23:33;;;;;;;2.83;1.48;;;;;;;18.80;69.50;95384.69;5044563;28;20045;-79
2021/08/08 10:25:58;;;;;;;2.58;1.40;;;;;;;18.67;73.58;95373.19;5046993;28;20079;-78
2021/08/08 10:28:25;;;;;;;4.55;1.55;;;;;;;18.85;71.13;95387.94;5049051;28;20127;-78
2021/08/08 10:30:51;;;;;;;3.42;1.60;;;;;;;18.82;66.14;95377.94;5047454;28;20493;-78
2021/08/08 10:33:17;;;;;;;2.70;1.70;;;;;;;18.61;72.25;95387.81;5044119;28;20041;-78
2021/08/08 10:35:47;;;;;;;6.65;1.50;;;;;;;18.81;68.15;95375.59;5046353;28;20068;-78
2021/08/08 10:38:15;;;;;;;3.50;1.30;;;;;;;18.68;69.53;95375.53;5050856;28;20048;-77
2021/08/08 10:40:43;;;;;;;4.63;1.30;;;;;;;18.53;68.67;95376.09;5055060;28;20033;-80
2021/08/08 10:43:22;;;;;;;4.82;1.38;;;;;;;18.68;68.35;95372.09;5048067;28;20068;-79
2021/08/08 10:45:47;;;;;;;6.28;2.15;;;;;;;18.64;73.21;95382.59;5055670;28;20059;-79
2021/08/08 10:48:14;;;;;;;4.43;1.58;;;;;;;18.81;68.80;95371.03;5050656;28;20053;-76
2021/08/08 10:50:48;;;;;;;1.95;1.25;;;;;;;18.77;65.63;95359.47;5051421;28;20045;-78
2021/08/08 10:53:25;;;;;;;7.68;1.88;;;;;;;18.79;66.08;95361.81;5047656;28;20053;-78
2021/08/08 10:56:12;;;;;;;1.90;1.35;;;;;;;18.80;72.49;95364.13;5051604;28;20045;-76
2021/08/08 10:58:39;;;;;;;2.20;1.40;;;;;;;18.92;68.75;95355.47;5051781;28;20040;-77
2021/08/08 11:01:18;;;;;;;4.03;1.75;;;;;;;19.27;72.48;95355.16;5028370;28;20065;-81
2021/08/08 11:03:50;;;;;;;2.67;1.38;;;;;;;19.35;65.24;95350.84;5047128;28;20422;-78
2021/08/08 11:06:27;;;;;;;3.15;1.48;;;;;;;19.29;66.43;95355.59;5040534;28;20113;-79
2021/08/08 11:08:55;;;;;;;2.97;1.40;;;;;;;19.18;69.22;95355.25;5057324;28;20045;-79
2021/08/08 11:11:23;;;;;;;2.03;1.40;;;;;;;19.24;66.98;95355.00;5041007;28;20049;-80
2021/08/08 11:13:48;;;;;;;2.42;1.30;;;;;;;19.70;65.14;95345.16;5041145;28;20057;-80
2021/08/08 11:16:14;;;;;;;2.95;1.50;;;;;;;19.81;61.24;95346.31;5039950;28;20071;-78
2021/08/08 11:18:39;;;;;;;5.90;1.45;;;;;;;19.52;64.54;95333.88;5051131;28;20063;-80
2021/08/08 11:21:13;;;;;;;4.70;1.80;;;;;;;20.18;64.51;95332.94;5043250;28;20037;-79
2021/08/08 11:23:39;;;;;;;3.05;1.50;;;;;;;19.88;65.17;95341.19;5044214;28;20133;-78
2021/08/08 11:26:04;;;;;;;6.85;1.75;;;;;;;19.92;64.53;95337.84;5038774;28;20049;-78
2021/08/08 11:28:30;;;;;;;3.47;1.52;;;;;;;19.87;61.80;95328.94;5040001;28;20056;-78